Airfield :
LOGIN :

Register | Disclaimer

   EN    FR    IT 

 










Legend :    VFR   Marginal VFR   IFR   Intensive IFR   Very Intensive IFR
Visi :
Ceiling :
>= 8 km
>= 3000ft
5 to 8 km
1000 to 3000 ft
1500m to 5 km
500 to 1000 ft
800 to 1500m
200 to 500 ft
< 800m
< 200 ft
Symbols :   Thunderstorms  Fog  Heavy snow  Heavy precipitations  Wind > 20 kt
SIGMETs :     Misc.  Thunderstorms  Icing  Turbulence  Mountain Waves  Volcanic Ashes






- Airport Elevation : 353 ft
- IATA code : LIN


LIML - Milano Linate

CURRENT METAR :
  • 221150Z 25004KT 220V280 CAVOK 06/M00 Q1034 NOSIG

EXPIRED METARs :
  • 221120Z 25006KT 220V280 CAVOK 06/M01 Q1034 NOSIG
  • 221050Z 25005KT 210V280 CAVOK 06/M01 Q1035 NOSIG
  • 221020Z 23004KT 200V270 CAVOK 06/M01 Q1035 NOSIG
  • 220950Z 26003KT 230V290 CAVOK 05/M03 Q1035 NOSIG
  • 220920Z VRB02KT CAVOK 04/M02 Q1036 NOSIG

TAF TAF LIML
Valid from the 22 at 12:00 until the 23 at 12:00 UTC


221100Z 2212/2312 VRB05KT CAVOK



MET'MAP, your aeronautical weather chart ! - Copyright ORBIFLY December 2007 - Disclaimer

ORBIFLY MET'MAP TEAM :

Programming & Development : Alexandra Zaïnal
Concept & original design : Baudouin d'Aumeries
Assistance for programming : Marc-Olivier Méhu
Technical & hardware support : Manuel Goepfert

Contact : metmap@orbifly.com




SOURCES & CREDITS :

   NOAA